Time;durP1;ratioP1;P1;durP2;ratioP2;P2;SDS_P1;SDS_P2;PMS_P1;PMS_P2;Temp;Humidity;BMP_temperature;BMP_pressure;BME280_temperature;BME280_humidity;BME280_pressure;Samples;Min_cycle;Max_cycle;Signal;HPM_P1;HPM_P2
2022/07/30 00:00:11;;;;;;;4.70;1.63;;;23.50;99.90;;;;;;4229874;28;20722;-79
2022/07/30 00:02:15;;;;;;;3.45;1.77;;;23.50;99.90;;;;;;4229572;28;20622;-79
2022/07/30 00:04:17;;;;;;;3.88;1.45;;;23.50;99.90;;;;;;4229800;28;20405;-80
2022/07/30 00:06:21;;;;;;;2.38;1.60;;;23.50;99.90;;;;;;4229739;28;20209;-79
2022/07/30 00:08:23;;;;;;;3.75;1.80;;;23.50;99.90;;;;;;4229737;28;20225;-79
2022/07/30 00:10:27;;;;;;;2.90;1.65;;;23.50;99.90;;;;;;4229777;28;20217;-79
2022/07/30 00:12:30;;;;;;;4.88;1.90;;;23.50;99.90;;;;;;4230032;28;20214;-79
2022/07/30 00:14:33;;;;;;;3.53;1.73;;;23.50;99.90;;;;;;4229407;28;20237;-79
2022/07/30 00:16:36;;;;;;;1.83;1.60;;;23.40;99.90;;;;;;4229815;28;20278;-79
2022/07/30 00:18:38;;;;;;;3.53;1.73;;;23.40;99.90;;;;;;4229548;28;20225;-79
2022/07/30 00:20:40;;;;;;;2.78;1.70;;;23.50;99.90;;;;;;4229705;28;20553;-79
2022/07/30 00:22:44;;;;;;;4.03;1.98;;;23.40;99.90;;;;;;4229989;28;20623;-79
2022/07/30 00:24:46;;;;;;;2.03;1.58;;;23.40;99.90;;;;;;4229746;28;20218;-79
2022/07/30 00:26:49;;;;;;;6.28;2.08;;;23.40;99.90;;;;;;4229757;28;20218;-79
2022/07/30 00:28:51;;;;;;;1.98;1.40;;;23.40;99.90;;;;;;4229686;28;20657;-79
2022/07/30 00:30:53;;;;;;;2.65;1.80;;;23.40;99.90;;;;;;4229351;28;20210;-79
2022/07/30 00:32:56;;;;;;;2.13;1.50;;;23.40;99.90;;;;;;4229637;28;20592;-79
2022/07/30 00:34:58;;;;;;;2.25;1.75;;;23.40;99.90;;;;;;4229760;28;20912;-79
2022/07/30 00:37:00;;;;;;;4.03;1.90;;;23.40;99.90;;;;;;4229781;28;20206;-79
2022/07/30 00:39:04;;;;;;;2.72;1.85;;;23.40;99.90;;;;;;4229610;28;20209;-79
2022/07/30 00:41:06;;;;;;;3.15;1.75;;;23.40;99.90;;;;;;4229361;28;20553;-79
2022/07/30 00:43:13;;;;;;;4.60;1.90;;;23.40;99.90;;;;;;4229149;28;20287;-79
2022/07/30 00:45:17;;;;;;;3.63;1.70;;;23.40;99.90;;;;;;4229201;28;20242;-79
2022/07/30 00:47:20;;;;;;;3.00;1.70;;;23.40;99.90;;;;;;4229537;28;20214;-79
2022/07/30 00:49:23;;;;;;;2.58;1.67;;;23.40;99.90;;;;;;4229228;28;20267;-79
2022/07/30 00:51:26;;;;;;;1.73;1.63;;;23.40;99.90;;;;;;4229695;28;20682;-79
2022/07/30 00:53:28;;;;;;;3.78;1.70;;;23.40;99.90;;;;;;4229505;28;20238;-79
2022/07/30 00:55:32;;;;;;;2.15;1.45;;;23.40;99.90;;;;;;4228985;28;20263;-79
2022/07/30 00:57:34;;;;;;;4.03;1.80;;;23.40;99.90;;;;;;4229358;28;20267;-79
2022/07/30 00:59:36;;;;;;;2.33;1.70;;;23.40;99.90;;;;;;4229077;28;20259;-79
2022/07/30 01:01:39;;;;;;;2.20;1.45;;;23.40;99.90;;;;;;4229224;28;20251;-79
2022/07/30 01:03:41;;;;;;;2.40;1.67;;;23.40;99.90;;;;;;4229508;28;20621;-79
2022/07/30 01:05:44;;;;;;;3.10;2.00;;;23.40;99.90;;;;;;4232564;28;20210;-79
2022/07/30 01:07:46;;;;;;;2.10;1.85;;;23.40;99.90;;;;;;4232483;28;20214;-79
2022/07/30 01:09:48;;;;;;;2.40;1.52;;;23.40;99.90;;;;;;4232201;28;20247;-79
2022/07/30 01:11:52;;;;;;;2.63;1.50;;;23.40;99.90;;;;;;4232535;28;20255;-79
2022/07/30 01:13:54;;;;;;;3.80;1.55;;;23.40;99.90;;;;;;4231798;28;20233;-79
2022/07/30 01:15:57;;;;;;;2.42;1.55;;;23.40;99.90;;;;;;4232288;28;20657;-75
2022/07/30 01:18:05;;;;;;;2.45;1.60;;;23.30;99.90;;;;;;4232496;28;20263;-75
2022/07/30 01:20:12;;;;;;;2.58;1.60;;;23.40;99.90;;;;;;4232097;28;20270;-75
2022/07/30 01:22:28;;;;;;;3.38;1.80;;;23.30;99.90;;;;;;4232107;28;20270;-75
2022/07/30 01:24:38;;;;;;;3.17;1.67;;;23.40;99.90;;;;;;4232106;28;20263;-79
2022/07/30 01:26:43;;;;;;;3.22;1.63;;;23.40;99.90;;;;;;4231910;28;20217;-79
2022/07/30 01:28:50;;;;;;;3.10;1.77;;;23.40;99.90;;;;;;4232048;28;20669;-79
2022/07/30 01:30:54;;;;;;;3.05;1.73;;;23.30;99.90;;;;;;4232220;28;20282;-79
2022/07/30 01:32:58;;;;;;;1.92;1.73;;;23.30;99.90;;;;;;4232180;28;20274;-81
2022/07/30 01:35:02;;;;;;;1.95;1.73;;;23.40;99.90;;;;;;4231876;28;20286;-81
2022/07/30 01:37:07;;;;;;;2.78;1.65;;;23.30;99.90;;;;;;4232029;28;20221;-79
2022/07/30 01:39:10;;;;;;;2.05;1.58;;;23.30;99.90;;;;;;4231991;28;20271;-79
2022/07/30 01:41:15;;;;;;;2.53;1.77;;;23.30;99.90;;;;;;4231861;28;20723;-79
2022/07/30 01:43:20;;;;;;;2.35;1.65;;;23.30;99.90;;;;;;4231841;28;20283;-79
2022/07/30 01:45:24;;;;;;;2.65;1.90;;;23.30;99.90;;;;;;4231804;28;20282;-79
2022/07/30 01:47:29;;;;;;;2.63;1.70;;;23.30;99.90;;;;;;4232274;28;20719;-79
2022/07/30 01:49:32;;;;;;;3.33;1.70;;;23.30;99.90;;;;;;4232033;28;20221;-79
2022/07/30 01:51:36;;;;;;;2.45;1.67;;;23.30;99.90;;;;;;4232006;28;20217;-79
2022/07/30 01:53:40;;;;;;;3.22;1.70;;;23.30;99.90;;;;;;4231878;28;20209;-79
2022/07/30 01:55:45;;;;;;;2.95;1.65;;;23.30;99.90;;;;;;4231930;28;20218;-79
2022/07/30 01:57:49;;;;;;;2.88;1.70;;;23.30;99.90;;;;;;4231564;28;20612;-79
2022/07/30 01:59:57;;;;;;;2.15;1.70;;;23.30;99.90;;;;;;4231448;28;20293;-79
2022/07/30 02:02:00;;;;;;;4.43;2.15;;;23.30;99.90;;;;;;4231587;28;20209;-79
2022/07/30 02:04:04;;;;;;;2.63;1.70;;;23.30;99.90;;;;;;4231488;28;20271;-79
2022/07/30 02:06:11;;;;;;;2.50;1.73;;;23.30;99.90;;;;;;4231494;28;20650;-79
2022/07/30 02:08:18;;;;;;;3.80;1.70;;;23.30;99.90;;;;;;4231626;28;20201;-79
2022/07/30 02:10:28;;;;;;;3.65;1.88;;;23.30;99.90;;;;;;4231504;28;20220;-79
2022/07/30 02:12:31;;;;;;;4.80;2.00;;;23.30;99.90;;;;;;4231391;28;20266;-79
2022/07/30 02:14:41;;;;;;;2.67;1.75;;;23.30;99.90;;;;;;4231367;28;20274;-79
2022/07/30 02:16:49;;;;;;;5.72;2.00;;;23.30;99.90;;;;;;4230565;28;20214;-79
2022/07/30 02:18:59;;;;;;;2.55;1.50;;;23.20;99.90;;;;;;4231598;28;20217;-79
2022/07/30 02:21:05;;;;;;;3.17;1.60;;;23.30;99.90;;;;;;4231359;28;20218;-79
2022/07/30 02:23:11;;;;;;;2.60;1.70;;;23.20;99.90;;;;;;4231309;28;20259;-79
2022/07/30 02:25:18;;;;;;;2.70;1.83;;;23.20;99.90;;;;;;4231412;28;20213;-79
2022/07/30 02:27:25;;;;;;;2.88;1.60;;;23.30;99.90;;;;;;4231308;28;20677;-79
2022/07/30 02:29:28;;;;;;;2.15;1.55;;;23.20;99.90;;;;;;4231180;28;20214;-79
2022/07/30 02:31:33;;;;;;;3.42;1.98;;;23.20;99.90;;;;;;4231016;28;20518;-79
2022/07/30 02:33:40;;;;;;;3.03;1.90;;;23.20;99.90;;;;;;4231587;28;20209;-79
2022/07/30 02:35:43;;;;;;;2.15;1.40;;;23.20;99.90;;;;;;4230830;28;20591;-79
2022/07/30 02:37:47;;;;;;;2.33;1.60;;;23.20;99.90;;;;;;4231189;28;20738;-79
2022/07/30 02:39:50;;;;;;;2.85;1.90;;;23.20;99.90;;;;;;4230858;28;20218;-79
2022/07/30 02:41:54;;;;;;;4.57;1.90;;;23.20;99.90;;;;;;4230481;28;20214;-78
2022/07/30 02:43:57;;;;;;;2.08;1.52;;;23.20;99.90;;;;;;4230696;28;20576;-79
2022/07/30 02:46:01;;;;;;;4.30;1.65;;;23.20;99.90;;;;;;4230932;28;20262;-80
2022/07/30 02:48:06;;;;;;;3.70;1.70;;;23.20;99.90;;;;;;4230795;28;20209;-79
2022/07/30 02:50:12;;;;;;;3.42;1.42;;;23.20;99.90;;;;;;4230913;28;20214;-79
2022/07/30 02:52:16;;;;;;;3.50;1.73;;;23.20;99.90;;;;;;4230611;28;20261;-79
2022/07/30 02:54:20;;;;;;;2.78;1.70;;;23.20;99.90;;;;;;4230766;28;20682;-79
2022/07/30 02:56:23;;;;;;;2.90;1.73;;;23.20;99.90;;;;;;4230720;28;20218;-79
2022/07/30 02:58:28;;;;;;;2.85;1.70;;;23.20;99.90;;;;;;4230950;28;20614;-79
2022/07/30 03:00:31;;;;;;;2.78;1.45;;;23.20;99.90;;;;;;4230763;28;20214;-79
2022/07/30 03:02:34;;;;;;;2.25;1.65;;;23.20;99.90;;;;;;4230633;28;20213;-79
2022/07/30 03:04:38;;;;;;;2.90;1.80;;;23.20;99.90;;;;;;4230445;28;20250;-79
2022/07/30 03:06:44;;;;;;;3.90;1.50;;;23.10;99.90;;;;;;4230290;28;20727;-79
2022/07/30 03:08:47;;;;;;;2.22;1.60;;;23.20;99.90;;;;;;4230412;28;20615;-79
2022/07/30 03:10:51;;;;;;;2.42;1.60;;;23.20;99.90;;;;;;4230569;28;20542;-79
2022/07/30 03:12:54;;;;;;;2.85;1.65;;;23.20;99.90;;;;;;4230202;28;20262;-79
2022/07/30 03:14:57;;;;;;;3.58;1.95;;;23.20;99.90;;;;;;4230105;28;20237;-79
2022/07/30 03:17:03;;;;;;;3.90;1.70;;;23.10;99.90;;;;;;4230677;28;20214;-79
2022/07/30 03:19:09;;;;;;;2.33;1.52;;;23.20;99.90;;;;;;4230434;28;20259;-79
2022/07/30 03:21:16;;;;;;;2.08;1.55;;;23.20;99.90;;;;;;4230623;28;20263;-79
2022/07/30 03:23:20;;;;;;;3.33;1.65;;;23.10;99.90;;;;;;4230643;28;20263;-79
2022/07/30 03:25:25;;;;;;;2.67;1.75;;;23.10;99.90;;;;;;4230652;28;20255;-79
2022/07/30 03:27:28;;;;;;;1.60;1.40;;;23.10;99.90;;;;;;4230171;28;20739;-79
2022/07/30 03:29:31;;;;;;;3.03;1.65;;;23.10;99.90;;;;;;4229892;28;20217;-79
2022/07/30 03:31:34;;;;;;;3.80;1.83;;;23.10;99.90;;;;;;4230310;28;20221;-79
2022/07/30 03:33:37;;;;;;;3.92;1.77;;;23.10;99.90;;;;;;4229989;28;20259;-79
2022/07/30 03:35:42;;;;;;;3.20;1.85;;;23.10;99.90;;;;;;4230473;28;20226;-79
2022/07/30 03:37:46;;;;;;;3.63;2.17;;;23.10;99.90;;;;;;4230271;28;20213;-79
2022/07/30 03:39:49;;;;;;;3.28;1.70;;;23.10;99.90;;;;;;4229996;28;20218;-79
2022/07/30 03:41:53;;;;;;;2.45;1.45;;;23.10;99.90;;;;;;4230044;28;20222;-78
2022/07/30 03:43:56;;;;;;;2.92;1.77;;;23.10;99.90;;;;;;4230078;28;20218;-79
2022/07/30 03:46:00;;;;;;;3.10;1.70;;;23.10;99.90;;;;;;4229888;28;20209;-79
2022/07/30 03:48:03;;;;;;;2.83;1.77;;;23.10;99.90;;;;;;4229639;28;20622;-79
2022/07/30 03:50:07;;;;;;;2.67;1.67;;;23.10;99.90;;;;;;4229703;28;20271;-79
2022/07/30 03:52:10;;;;;;;2.38;1.33;;;23.10;99.90;;;;;;4229821;28;20311;-79
2022/07/30 03:54:13;;;;;;;2.42;1.58;;;23.10;99.90;;;;;;4230021;28;20214;-79
2022/07/30 03:56:16;;;;;;;2.47;1.70;;;23.10;99.90;;;;;;4229693;28;20238;-79
2022/07/30 03:58:19;;;;;;;2.40;1.70;;;23.10;99.90;;;;;;4229907;28;20213;-79
2022/07/30 04:00:22;;;;;;;2.22;1.48;;;23.10;99.90;;;;;;4230567;28;20182;-79
2022/07/30 04:02:25;;;;;;;1.73;1.33;;;23.10;99.90;;;;;;4229921;28;20201;-79
2022/07/30 04:04:27;;;;;;;2.72;1.70;;;23.10;99.90;;;;;;4229803;28;20209;-79
2022/07/30 04:06:29;;;;;;;2.47;1.70;;;23.10;99.90;;;;;;4230027;28;20600;-79
2022/07/30 04:08:32;;;;;;;3.97;1.75;;;23.10;99.90;;;;;;4229831;28;20613;-79
2022/07/30 04:10:34;;;;;;;2.75;1.48;;;23.00;99.90;;;;;;4229905;28;20723;-79
2022/07/30 04:12:38;;;;;;;2.10;1.90;;;23.10;99.90;;;;;;4230014;28;20571;-79
2022/07/30 04:14:41;;;;;;;4.55;1.80;;;23.10;99.90;;;;;;4229747;28;20273;-79
2022/07/30 04:16:48;;;;;;;2.83;1.75;;;23.00;99.90;;;;;;4229761;28;20246;-79
2022/07/30 04:18:53;;;;;;;2.22;1.45;;;23.00;99.90;;;;;;4229551;28;20620;-79
2022/07/30 04:20:56;;;;;;;3.38;1.80;;;23.00;99.90;;;;;;4229431;28;20270;-75
2022/07/30 04:22:59;;;;;;;2.65;1.80;;;23.10;99.90;;;;;;4229474;28;20218;-75
2022/07/30 04:25:03;;;;;;;3.03;1.83;;;23.10;99.90;;;;;;4229741;28;20221;-75
2022/07/30 04:27:06;;;;;;;3.78;1.58;;;23.10;99.90;;;;;;4229501;28;20267;-75
2022/07/30 04:29:11;;;;;;;2.28;1.58;;;23.00;99.90;;;;;;4229444;28;20750;-79
2022/07/30 04:31:14;;;;;;;2.90;1.90;;;23.10;99.90;;;;;;4229550;28;20642;-79
2022/07/30 04:33:17;;;;;;;3.15;1.88;;;23.10;99.90;;;;;;4229823;28;20504;-79
2022/07/30 04:35:27;;;;;;;2.70;1.67;;;23.00;99.90;;;;;;4229736;28;20282;-79
2022/07/30 04:37:29;;;;;;;3.05;1.60;;;23.10;99.90;;;;;;4229478;28;20266;-80
2022/07/30 04:39:31;;;;;;;2.40;1.70;;;23.00;99.90;;;;;;4231440;28;20213;-79
2022/07/30 04:41:34;;;;;;;2.42;1.58;;;23.10;99.90;;;;;;4232705;28;20222;-79
2022/07/30 04:43:36;;;;;;;3.05;1.92;;;23.10;99.90;;;;;;4232441;28;20283;-79
2022/07/30 04:45:41;;;;;;;2.85;1.60;;;23.00;99.90;;;;;;4232685;28;20217;-75
2022/07/30 04:47:43;;;;;;;4.22;1.90;;;23.00;99.90;;;;;;4232466;28;20262;-76
2022/07/30 04:49:47;;;;;;;2.78;1.83;;;23.00;99.90;;;;;;4233015;28;20691;-75
2022/07/30 04:51:50;;;;;;;2.65;1.80;;;23.10;99.90;;;;;;4232779;28;20669;-75
2022/07/30 04:53:54;;;;;;;3.70;2.08;;;23.00;99.90;;;;;;4232297;28;20218;-75
2022/07/30 04:55:59;;;;;;;2.30;1.50;;;23.00;99.90;;;;;;4232057;28;20274;-75
2022/07/30 04:58:02;;;;;;;2.10;1.60;;;23.00;99.90;;;;;;4232703;28;20553;-75
2022/07/30 05:00:06;;;;;;;3.45;1.98;;;23.00;99.90;;;;;;4232678;28;20230;-75
2022/07/30 05:02:11;;;;;;;3.28;2.00;;;23.00;99.90;;;;;;4232426;28;20227;-75
2022/07/30 05:04:15;;;;;;;2.47;1.70;;;23.10;99.90;;;;;;4232641;28;20218;-75
2022/07/30 05:06:19;;;;;;;2.38;1.80;;;23.00;99.90;;;;;;4232569;28;20251;-75
2022/07/30 05:08:21;;;;;;;2.15;1.60;;;23.00;99.90;;;;;;4232526;28;20214;-75
2022/07/30 05:10:24;;;;;;;1.83;1.48;;;23.00;99.90;;;;;;4232687;28;20213;-75
2022/07/30 05:12:32;;;;;;;2.78;1.63;;;23.10;99.90;;;;;;4232293;28;20221;-76
2022/07/30 05:14:35;;;;;;;2.80;1.73;;;23.00;99.90;;;;;;4232534;28;20221;-75
2022/07/30 05:16:38;;;;;;;1.67;1.48;;;23.00;99.90;;;;;;4232401;28;20762;-76
2022/07/30 05:18:42;;;;;;;1.83;1.60;;;23.00;99.90;;;;;;4232147;28;20213;-76
2022/07/30 05:20:44;;;;;;;2.50;1.83;;;23.00;99.90;;;;;;4232338;28;20221;-76
2022/07/30 05:22:46;;;;;;;2.60;1.55;;;23.00;99.90;;;;;;4232169;28;20611;-76
2022/07/30 05:24:48;;;;;;;3.30;1.90;;;23.00;99.90;;;;;;4232543;28;20665;-76
2022/07/30 05:26:51;;;;;;;3.60;1.85;;;23.00;99.90;;;;;;4232586;28;20658;-76
2022/07/30 05:28:53;;;;;;;3.63;1.83;;;23.00;99.90;;;;;;4232250;28;20258;-76
2022/07/30 05:30:56;;;;;;;2.92;1.85;;;23.00;99.90;;;;;;4231780;28;20259;-76
2022/07/30 05:32:58;;;;;;;4.10;2.08;;;23.00;99.90;;;;;;4231904;28;20213;-76
2022/07/30 05:35:02;;;;;;;3.17;1.70;;;23.00;99.90;;;;;;4231954;28;20233;-76
2022/07/30 05:37:05;;;;;;;3.97;2.03;;;23.00;99.90;;;;;;4231683;28;20811;-76
2022/07/30 05:39:07;;;;;;;2.60;1.92;;;23.10;99.90;;;;;;4232000;28;20610;-76
2022/07/30 05:41:09;;;;;;;3.25;1.73;;;23.10;99.90;;;;;;4232173;28;20259;-79
2022/07/30 05:43:12;;;;;;;3.72;1.60;;;23.00;99.90;;;;;;4231777;28;20294;-79
2022/07/30 05:45:14;;;;;;;1.90;1.45;;;23.00;99.90;;;;;;4231996;28;20714;-79
2022/07/30 05:47:17;;;;;;;2.95;2.00;;;23.10;99.90;;;;;;4232140;28;20210;-79
2022/07/30 05:49:19;;;;;;;2.67;1.67;;;23.10;99.90;;;;;;4231669;28;20498;-79
2022/07/30 05:51:23;;;;;;;4.32;2.10;;;23.00;99.90;;;;;;4230928;28;20206;-79
2022/07/30 05:53:25;;;;;;;3.90;2.10;;;23.00;99.90;;;;;;4231663;28;20669;-80
2022/07/30 05:55:27;;;;;;;5.55;2.10;;;23.10;99.90;;;;;;4231772;28;20217;-79
2022/07/30 05:57:29;;;;;;;2.30;1.92;;;23.00;99.90;;;;;;4231682;28;20354;-79
2022/07/30 05:59:32;;;;;;;2.83;1.80;;;23.00;99.90;;;;;;4231673;28;20210;-79
2022/07/30 06:01:34;;;;;;;3.00;2.10;;;23.00;99.90;;;;;;4231631;28;20570;-79
2022/07/30 06:03:36;;;;;;;3.63;2.10;;;23.00;99.90;;;;;;4231397;28;20218;-79
2022/07/30 06:05:39;;;;;;;2.55;1.63;;;23.00;99.90;;;;;;4231715;28;20259;-79
2022/07/30 06:07:42;;;;;;;3.05;1.95;;;23.00;99.90;;;;;;4231453;28;20251;-79
2022/07/30 06:09:45;;;;;;;2.35;1.65;;;23.00;99.90;;;;;;4231448;28;20680;-80
2022/07/30 06:11:47;;;;;;;4.97;1.90;;;23.00;99.90;;;;;;4231347;28;20209;-79
2022/07/30 06:13:50;;;;;;;2.53;1.80;;;23.00;99.90;;;;;;4231388;28;20620;-79
2022/07/30 06:15:52;;;;;;;2.55;1.80;;;23.00;99.90;;;;;;4231537;28;20698;-79
2022/07/30 06:17:55;;;;;;;2.45;1.65;;;23.00;99.90;;;;;;4231604;28;20213;-79
2022/07/30 06:19:59;;;;;;;2.42;1.70;;;23.00;99.90;;;;;;4231156;28;20213;-79
2022/07/30 06:22:02;;;;;;;3.10;1.95;;;23.00;99.90;;;;;;4231429;28;20282;-80
2022/07/30 06:24:07;;;;;;;3.65;1.88;;;23.10;99.90;;;;;;4230992;28;20267;-79
2022/07/30 06:26:09;;;;;;;3.50;1.90;;;23.00;99.90;;;;;;4231087;28;20598;-79
2022/07/30 06:28:11;;;;;;;2.47;1.98;;;23.10;99.90;;;;;;4231271;28;20275;-79
2022/07/30 06:30:14;;;;;;;2.63;1.77;;;23.00;99.90;;;;;;4231102;28;20213;-80
2022/07/30 06:32:18;;;;;;;3.03;2.20;;;23.00;99.90;;;;;;4231509;28;20217;-79
2022/07/30 06:34:20;;;;;;;2.42;1.77;;;23.00;99.90;;;;;;4231099;28;20665;-79
2022/07/30 06:36:23;;;;;;;3.30;1.70;;;23.00;99.90;;;;;;4230987;28;20237;-79
2022/07/30 06:38:25;;;;;;;3.58;1.90;;;23.00;99.90;;;;;;4230568;28;20620;-79
2022/07/30 06:40:29;;;;;;;4.07;1.70;;;23.00;99.90;;;;;;4230948;28;20214;-79
2022/07/30 06:42:31;;;;;;;4.03;1.88;;;23.00;99.90;;;;;;4230493;28;20775;-79
2022/07/30 06:44:33;;;;;;;4.95;2.08;;;23.00;99.90;;;;;;4231286;28;20210;-79
2022/07/30 06:46:35;;;;;;;3.00;1.75;;;23.00;99.90;;;;;;4230800;28;20217;-79
2022/07/30 06:48:38;;;;;;;2.47;1.75;;;23.00;99.90;;;;;;4230784;28;20606;-79
2022/07/30 06:50:40;;;;;;;2.95;1.85;;;23.00;99.90;;;;;;4231044;28;20214;-79
2022/07/30 06:52:42;;;;;;;2.55;1.95;;;23.10;99.90;;;;;;4230709;28;20666;-79
2022/07/30 06:54:45;;;;;;;3.00;2.10;;;23.10;99.90;;;;;;4230687;28;20213;-79
2022/07/30 06:56:49;;;;;;;2.10;1.70;;;23.10;99.90;;;;;;4230910;28;20229;-79
2022/07/30 06:58:51;;;;;;;2.97;1.83;;;23.00;99.90;;;;;;4230901;28;20217;-80
2022/07/30 07:00:53;;;;;;;2.95;1.80;;;23.00;99.90;;;;;;4230607;28;20670;-79
2022/07/30 07:02:55;;;;;;;2.83;1.70;;;23.00;99.90;;;;;;4230560;28;20210;-79
2022/07/30 07:04:58;;;;;;;3.03;1.83;;;23.00;99.90;;;;;;4230610;28;20267;-79
2022/07/30 07:07:00;;;;;;;2.20;1.60;;;23.00;99.90;;;;;;4230463;28;20295;-79
2022/07/30 07:09:02;;;;;;;2.50;1.65;;;23.00;99.90;;;;;;4230586;28;20222;-79
2022/07/30 07:11:05;;;;;;;4.35;2.00;;;23.10;99.90;;;;;;4230390;28;20206;-79
2022/07/30 07:13:08;;;;;;;4.15;1.95;;;23.00;99.90;;;;;;4230703;28;20554;-79
2022/07/30 07:15:11;;;;;;;3.30;1.95;;;23.00;99.90;;;;;;4230385;28;20576;-79
2022/07/30 07:17:13;;;;;;;3.10;1.80;;;23.00;99.90;;;;;;4230485;28;20230;-79
2022/07/30 07:19:15;;;;;;;3.15;1.85;;;23.00;99.90;;;;;;4230268;28;20271;-79
2022/07/30 07:21:18;;;;;;;3.03;1.98;;;23.00;99.90;;;;;;4230296;28;20222;-79
2022/07/30 07:23:20;;;;;;;3.25;2.03;;;23.00;99.90;;;;;;4230218;28;20214;-79
2022/07/30 07:25:22;;;;;;;3.22;1.80;;;23.00;99.90;;;;;;4230500;28;20664;-79
2022/07/30 07:27:25;;;;;;;2.63;1.60;;;23.00;99.90;;;;;;4230460;28;20251;-79
2022/07/30 07:29:29;;;;;;;3.20;1.80;;;23.00;99.90;;;;;;4229696;28;20669;-79
2022/07/30 07:31:31;;;;;;;3.17;2.08;;;23.00;99.90;;;;;;4230343;28;20218;-79
2022/07/30 07:33:33;;;;;;;3.58;1.88;;;23.00;99.90;;;;;;4230163;28;20271;-79
2022/07/30 07:35:36;;;;;;;3.58;1.80;;;23.00;99.90;;;;;;4230481;28;20213;-79
2022/07/30 07:37:38;;;;;;;3.45;1.95;;;23.00;99.90;;;;;;4230022;28;20278;-79
2022/07/30 07:39:40;;;;;;;1.95;1.60;;;23.10;99.90;;;;;;4230063;28;20213;-79
2022/07/30 07:41:43;;;;;;;2.55;1.58;;;23.00;99.90;;;;;;4230057;28;20217;-79
2022/07/30 07:43:45;;;;;;;3.38;1.70;;;23.00;99.90;;;;;;4229707;28;20631;-79
2022/07/30 07:45:49;;;;;;;4.20;1.58;;;23.00;99.90;;;;;;4230176;28;20628;-79
2022/07/30 07:47:51;;;;;;;2.72;1.77;;;23.00;99.90;;;;;;4230022;28;20214;-79
2022/07/30 07:49:55;;;;;;;2.15;1.63;;;23.10;99.90;;;;;;4229760;28;20623;-79
2022/07/30 07:51:57;;;;;;;3.10;1.55;;;23.00;99.90;;;;;;4229783;28;20221;-79
2022/07/30 07:53:59;;;;;;;3.38;1.90;;;23.10;99.90;;;;;;4229922;28;20279;-79
2022/07/30 07:56:02;;;;;;;4.10;2.10;;;23.10;99.90;;;;;;4229621;28;20217;-79
2022/07/30 07:58:04;;;;;;;2.80;1.80;;;23.00;99.90;;;;;;4230069;28;20302;-79
2022/07/30 08:00:08;;;;;;;1.98;1.77;;;23.10;99.90;;;;;;4229680;28;20213;-79
2022/07/30 08:02:14;;;;;;;2.78;1.85;;;23.10;99.90;;;;;;4229857;28;20217;-79
2022/07/30 08:04:16;;;;;;;1.67;1.50;;;23.10;99.90;;;;;;4229793;28;20262;-79
2022/07/30 08:06:18;;;;;;;3.22;1.80;;;23.10;99.90;;;;;;4229867;28;20210;-79
2022/07/30 08:08:20;;;;;;;3.03;1.73;;;23.10;99.90;;;;;;4229892;28;20214;-79
2022/07/30 08:10:23;;;;;;;2.75;1.83;;;23.10;99.90;;;;;;4229477;28;20235;-81
2022/07/30 08:12:26;;;;;;;2.25;1.80;;;23.10;99.90;;;;;;4230011;28;20318;-81
2022/07/30 08:14:28;;;;;;;2.35;1.48;;;23.10;99.90;;;;;;4229272;28;20266;-81
2022/07/30 08:16:30;;;;;;;3.20;1.90;;;23.10;99.90;;;;;;4230044;28;20222;-81
2022/07/30 08:18:35;;;;;;;2.25;1.48;;;23.10;99.90;;;;;;4229559;28;20653;-81
2022/07/30 08:20:39;;;;;;;2.75;2.08;;;23.10;99.90;;;;;;4229624;28;20218;-81
2022/07/30 08:22:41;;;;;;;2.35;1.73;;;23.10;99.90;;;;;;4229785;28;20258;-81
2022/07/30 08:24:44;;;;;;;2.20;1.60;;;23.10;99.90;;;;;;4229587;28;20221;-81
2022/07/30 08:26:46;;;;;;;2.65;1.50;;;23.10;99.90;;;;;;4229683;28;20271;-81
2022/07/30 08:28:48;;;;;;;2.97;1.52;;;23.20;99.90;;;;;;4230165;28;20246;-81
2022/07/30 08:30:51;;;;;;;2.58;1.73;;;23.20;99.90;;;;;;4229524;28;20699;-81
2022/07/30 08:32:53;;;;;;;3.13;1.77;;;23.20;99.90;;;;;;4229672;28;20218;-80
2022/07/30 08:34:57;;;;;;;4.03;1.63;;;23.20;99.90;;;;;;4229502;28;20217;-80
2022/07/30 08:36:59;;;;;;;2.13;1.45;;;23.20;99.90;;;;;;4229417;28;20217;-79
2022/07/30 08:39:01;;;;;;;2.28;1.50;;;23.20;99.90;;;;;;4229678;28;20241;-79
2022/07/30 08:41:04;;;;;;;2.55;1.67;;;23.20;99.90;;;;;;4229741;28;20213;-79
2022/07/30 08:43:07;;;;;;;2.63;1.42;;;23.30;99.90;;;;;;4229216;28;20230;-80
2022/07/30 08:45:13;;;;;;;2.63;1.50;;;23.30;99.90;;;;;;4228853;28;20254;-79
2022/07/30 08:47:18;;;;;;;3.25;1.75;;;23.30;99.90;;;;;;4229286;28;20666;-77
2022/07/30 08:49:21;;;;;;;2.20;1.70;;;23.30;99.90;;;;;;4229532;28;20662;-77
2022/07/30 08:51:25;;;;;;;2.30;1.50;;;23.30;99.90;;;;;;4229183;28;20210;-77
2022/07/30 08:53:27;;;;;;;2.63;1.55;;;23.30;99.90;;;;;;4229380;28;20213;-77
2022/07/30 08:55:29;;;;;;;1.75;1.40;;;23.30;99.90;;;;;;4229113;28;20217;-77
2022/07/30 08:57:33;;;;;;;1.88;1.40;;;23.30;99.90;;;;;;4229659;28;20258;-77
2022/07/30 08:59:37;;;;;;;1.73;1.50;;;23.30;99.90;;;;;;4229635;28;20266;-77
2022/07/30 09:01:40;;;;;;;3.13;1.60;;;23.30;99.90;;;;;;4228984;28;20271;-77
2022/07/30 09:03:42;;;;;;;1.80;1.60;;;23.30;99.90;;;;;;4229614;28;20243;-77
2022/07/30 09:05:45;;;;;;;2.88;2.00;;;23.30;99.90;;;;;;4229233;28;20259;-77
2022/07/30 09:07:49;;;;;;;3.40;1.58;;;23.30;99.90;;;;;;4229057;28;20210;-77
2022/07/30 09:09:51;;;;;;;1.98;1.40;;;23.30;99.90;;;;;;4229669;28;20210;-77
2022/07/30 09:11:54;;;;;;;1.45;1.35;;;23.30;99.90;;;;;;4229328;28;20625;-77
2022/07/30 09:14:08;;;;;;;3.15;1.40;;;23.40;99.90;;;;;;4229243;28;20214;-77
2022/07/30 09:16:20;;;;;;;1.80;1.50;;;23.30;99.90;;;;;;4228963;28;20259;-77
2022/07/30 09:18:31;;;;;;;2.20;1.30;;;23.30;99.90;;;;;;4229096;28;20750;-77
2022/07/30 09:20:35;;;;;;;2.47;1.67;;;23.40;99.90;;;;;;4229029;28;20262;-77
2022/07/30 09:22:43;;;;;;;1.60;1.40;;;23.40;99.90;;;;;;4228916;28;20267;-77
2022/07/30 09:24:47;;;;;;;2.55;1.55;;;23.40;99.90;;;;;;4229598;28;20251;-77
2022/07/30 09:26:53;;;;;;;2.67;1.60;;;23.40;99.90;;;;;;4231961;28;20609;-77
2022/07/30 09:29:14;;;;;;;2.05;1.60;;;23.40;99.90;;;;;;4232150;28;20206;-77
2022/07/30 09:31:17;;;;;;;2.22;1.30;;;23.40;99.90;;;;;;4232038;28;20221;-77
2022/07/30 09:33:33;;;;;;;1.58;1.40;;;23.40;99.90;;;;;;4232060;28;20272;-77
2022/07/30 09:35:35;;;;;;;1.70;1.60;;;23.40;99.90;;;;;;4232186;28;20221;-77
2022/07/30 09:37:38;;;;;;;1.45;1.35;;;23.40;99.90;;;;;;4232303;28;20214;-77
2022/07/30 09:39:42;;;;;;;1.77;1.50;;;23.40;99.90;;;;;;4231918;28;20283;-77
2022/07/30 09:41:46;;;;;;;1.95;1.42;;;23.40;99.90;;;;;;4232024;28;20214;-77
2022/07/30 09:43:50;;;;;;;2.20;1.40;;;23.40;99.90;;;;;;4231695;28;20283;-77
2022/07/30 09:45:54;;;;;;;1.85;1.52;;;23.50;99.90;;;;;;4232196;28;20230;-77
2022/07/30 09:47:56;;;;;;;2.67;1.50;;;23.50;99.90;;;;;;4232147;28;20213;-77
2022/07/30 09:50:04;;;;;;;1.92;1.48;;;23.50;99.90;;;;;;4231612;28;20279;-77
2022/07/30 09:52:06;;;;;;;1.65;1.33;;;23.50;99.90;;;;;;4231722;28;20218;-77
2022/07/30 09:54:09;;;;;;;1.60;1.40;;;23.50;99.90;;;;;;4231451;28;20254;-77
2022/07/30 09:56:25;;;;;;;1.23;1.13;;;23.50;99.90;;;;;;4231745;28;20214;-77
2022/07/30 09:58:39;;;;;;;2.35;1.52;;;23.50;99.90;;;;;;4231958;28;20233;-77
2022/07/30 10:00:42;;;;;;;3.13;1.75;;;23.50;99.90;;;;;;4231591;28;20266;-77
2022/07/30 10:02:46;;;;;;;2.05;1.60;;;23.50;99.90;;;;;;4231567;28;20222;-77
2022/07/30 10:04:48;;;;;;;2.00;1.50;;;23.50;99.90;;;;;;4231671;28;20217;-77
2022/07/30 10:06:51;;;;;;;1.20;1.10;;;23.50;99.90;;;;;;4231558;28;20222;-77
2022/07/30 10:08:53;;;;;;;2.85;1.58;;;23.50;99.90;;;;;;4231645;28;20274;-77
2022/07/30 10:10:55;;;;;;;1.50;1.25;;;23.50;99.90;;;;;;4231316;28;20218;-77
2022/07/30 10:13:00;;;;;;;1.27;1.17;;;23.50;99.90;;;;;;4231575;28;20213;-77
2022/07/30 10:15:05;;;;;;;2.13;1.52;;;23.50;99.90;;;;;;4231587;28;20217;-77
2022/07/30 10:17:07;;;;;;;1.40;1.30;;;23.50;99.90;;;;;;4231233;28;20214;-77
2022/07/30 10:19:10;;;;;;;2.22;1.40;;;23.50;99.90;;;;;;4231236;28;20225;-77
2022/07/30 10:21:13;;;;;;;1.98;1.38;;;23.60;99.90;;;;;;4231423;28;20217;-77
2022/07/30 10:23:16;;;;;;;2.75;1.33;;;23.60;99.90;;;;;;4231615;28;20217;-77
2022/07/30 10:25:19;;;;;;;2.70;1.50;;;23.60;99.90;;;;;;4231115;28;20697;-77
2022/07/30 10:27:23;;;;;;;1.67;1.30;;;23.60;99.90;;;;;;4231364;28;20681;-77
2022/07/30 10:29:25;;;;;;;1.80;1.60;;;23.60;99.90;;;;;;4231006;28;20609;-77
2022/07/30 10:31:29;;;;;;;1.90;1.30;;;23.60;99.90;;;;;;4230728;28;20213;-77
2022/07/30 10:33:32;;;;;;;1.80;1.42;;;23.70;99.90;;;;;;4231174;28;20214;-77
2022/07/30 10:35:34;;;;;;;2.58;1.33;;;23.70;99.90;;;;;;4231408;28;20217;-77
2022/07/30 10:37:38;;;;;;;2.17;1.55;;;23.70;99.90;;;;;;4230612;28;20213;-77
2022/07/30 10:39:50;;;;;;;2.50;1.20;;;23.70;99.90;;;;;;4230696;28;20233;-77
2022/07/30 10:42:02;;;;;;;1.50;1.17;;;23.80;99.90;;;;;;4231266;28;20721;-77
2022/07/30 10:44:35;;;;;;;1.70;1.30;;;23.70;99.90;;;;;;4230836;28;20622;-77